CMH4 weather

Mirabel Hélico Heliport
Montréal, Quebec, Canada

Public forecast

Using degrees Celsius for public forecast. Weather courtesy of forecast.io.

Closest aviation weather report (METAR) to Mirabel Hélico Heliport

Closest report is Montreal International (Mirabel) Airport, 3.7 nm (6.9 km) WSW. Retrieved 2019/10/20 05:00 UTC (23 minutes ago):

CYMX 200500Z 00000KT 25SM SKC M00/M01 A3002 RMK SLP171

Closest aviation forecast (TAF) to Mirabel Hélico Heliport

Closest forecast is Montreal International (Mirabel) Airport, 3.7 nm (6.9 km) WSW. Retrieved 2019-10-20 00:42 UTC (5 hours ago):

TAF CYMX 192338Z 2000/2024 VRB03KT P6SM FEW160 FM200600 VRB03KT 6SM BR SKC PROB30 2007/2014 1/2SM FG VV002 FM201400 VRB03KT P6SM FEW010 SCT160 FM201700 08007KT P6SM SCT200 BECMG 2022/2024 VRB03KT RMK NXT FCST BY 200600Z